sensor_id;sensor_type;location;lat;lon;timestamp;temperature;humidity
37530;DHT22;23374;52.758;6.872;2022-08-05T00:02:18;20.10;99.90
37530;DHT22;23374;52.758;6.872;2022-08-05T00:04:38;20.00;1.00
37530;DHT22;23374;52.758;6.872;2022-08-05T00:06:58;20.00;1.00
37530;DHT22;23374;52.758;6.872;2022-08-05T00:09:19;20.00;99.90
37530;DHT22;23374;52.758;6.872;2022-08-05T00:11:39;20.00;1.00
37530;DHT22;23374;52.758;6.872;2022-08-05T00:14:01;20.00;1.00
37530;DHT22;23374;52.758;6.872;2022-08-05T00:16:21;19.90;99.90
37530;DHT22;23374;52.758;6.872;2022-08-05T00:20:10;20.00;1.00
37530;DHT22;23374;52.758;6.872;2022-08-05T00:22:31;20.00;99.90
37530;DHT22;23374;52.758;6.872;2022-08-05T00:24:51;20.00;99.90
37530;DHT22;23374;52.758;6.872;2022-08-05T00:27:11;20.00;1.00
37530;DHT22;23374;52.758;6.872;2022-08-05T00:29:31;20.00;1.00
37530;DHT22;23374;52.758;6.872;2022-08-05T00:31:53;20.00;1.00
37530;DHT22;23374;52.758;6.872;2022-08-05T00:34:13;20.00;99.90
37530;DHT22;23374;52.758;6.872;2022-08-05T00:36:34;20.00;99.90
37530;DHT22;23374;52.758;6.872;2022-08-05T00:38:54;19.90;1.00
37530;DHT22;23374;52.758;6.872;2022-08-05T00:41:29;20.00;1.00
37530;DHT22;23374;52.758;6.872;2022-08-05T00:43:49;20.00;1.00
37530;DHT22;23374;52.758;6.872;2022-08-05T00:46:09;20.00;1.00
37530;DHT22;23374;52.758;6.872;2022-08-05T00:48:29;20.00;1.00
37530;DHT22;23374;52.758;6.872;2022-08-05T00:50:51;20.00;99.90
37530;DHT22;23374;52.758;6.872;2022-08-05T00:53:11;20.10;1.00
37530;DHT22;23374;52.758;6.872;2022-08-05T00:55:32;20.10;1.00
37530;DHT22;23374;52.758;6.872;2022-08-05T00:57:52;20.10;1.00
37530;DHT22;23374;52.758;6.872;2022-08-05T01:00:12;20.10;1.00
37530;DHT22;23374;52.758;6.872;2022-08-05T01:02:33;20.10;1.00
37530;DHT22;23374;52.758;6.872;2022-08-05T01:04:53;20.10;1.00
37530;DHT22;23374;52.758;6.872;2022-08-05T01:07:13;20.10;1.00
37530;DHT22;23374;52.758;6.872;2022-08-05T01:09:33;20.10;1.00
37530;DHT22;23374;52.758;6.872;2022-08-05T01:11:58;20.10;1.00
37530;DHT22;23374;52.758;6.872;2022-08-05T01:28:58;20.10;88.70
37530;DHT22;23374;52.758;6.872;2022-08-05T01:31:37;20.00;99.90
37530;DHT22;23374;52.758;6.872;2022-08-05T01:35:24;19.90;99.90
37530;DHT22;23374;52.758;6.872;2022-08-05T01:37:53;19.90;99.90
37530;DHT22;23374;52.758;6.872;2022-08-05T01:40:14;19.90;99.90
37530;DHT22;23374;52.758;6.872;2022-08-05T01:42:37;19.90;14.00
37530;DHT22;23374;52.758;6.872;2022-08-05T01:44:59;19.90;99.90
37530;DHT22;23374;52.758;6.872;2022-08-05T01:47:21;19.90;1.00
37530;DHT22;23374;52.758;6.872;2022-08-05T01:49:43;19.90;99.90
37530;DHT22;23374;52.758;6.872;2022-08-05T01:52:05;19.90;1.00
37530;DHT22;23374;52.758;6.872;2022-08-05T01:54:45;19.90;99.90
37530;DHT22;23374;52.758;6.872;2022-08-05T01:57:08;19.90;1.00
37530;DHT22;23374;52.758;6.872;2022-08-05T01:59:30;19.90;1.00
37530;DHT22;23374;52.758;6.872;2022-08-05T02:01:53;19.90;1.00
37530;DHT22;23374;52.758;6.872;2022-08-05T02:04:17;19.80;1.00
37530;DHT22;23374;52.758;6.872;2022-08-05T02:06:38;19.80;99.90
37530;DHT22;23374;52.758;6.872;2022-08-05T02:08:59;19.80;1.00
37530;DHT22;23374;52.758;6.872;2022-08-05T02:11:19;19.80;99.90
37530;DHT22;23374;52.758;6.872;2022-08-05T02:14:14;19.80;1.00
37530;DHT22;23374;52.758;6.872;2022-08-05T02:16:45;19.80;99.90
37530;DHT22;23374;52.758;6.872;2022-08-05T02:20:27;19.80;1.00
37530;DHT22;23374;52.758;6.872;2022-08-05T02:22:58;19.80;1.00
37530;DHT22;23374;52.758;6.872;2022-08-05T02:25:33;19.70;99.90
37530;DHT22;23374;52.758;6.872;2022-08-05T02:27:58;19.70;1.00
37530;DHT22;23374;52.758;6.872;2022-08-05T02:30:19;19.70;1.00
37530;DHT22;23374;52.758;6.872;2022-08-05T02:32:42;19.60;1.00
37530;DHT22;23374;52.758;6.872;2022-08-05T02:35:10;19.60;99.90
37530;DHT22;23374;52.758;6.872;2022-08-05T02:37:32;19.60;1.00
37530;DHT22;23374;52.758;6.872;2022-08-05T02:39:54;19.60;99.90
37530;DHT22;23374;52.758;6.872;2022-08-05T02:42:14;19.60;99.90
37530;DHT22;23374;52.758;6.872;2022-08-05T02:44:38;19.60;52.80
37530;DHT22;23374;52.758;6.872;2022-08-05T02:47:01;19.50;95.00
37530;DHT22;23374;52.758;6.872;2022-08-05T02:49:24;19.50;53.90
37530;DHT22;23374;52.758;6.872;2022-08-05T02:51:45;19.50;50.90
37530;DHT22;23374;52.758;6.872;2022-08-05T02:54:05;19.50;1.00
37530;DHT22;23374;52.758;6.872;2022-08-05T02:56:27;19.60;1.00
37530;DHT22;23374;52.758;6.872;2022-08-05T02:58:48;19.60;99.90
37530;DHT22;23374;52.758;6.872;2022-08-05T03:01:16;19.60;99.90
37530;DHT22;23374;52.758;6.872;2022-08-05T03:03:41;19.60;99.90
37530;DHT22;23374;52.758;6.872;2022-08-05T03:06:02;19.60;99.90
37530;DHT22;23374;52.758;6.872;2022-08-05T03:08:23;19.60;99.90
37530;DHT22;23374;52.758;6.872;2022-08-05T03:10:44;19.60;1.00
37530;DHT22;23374;52.758;6.872;2022-08-05T03:13:16;19.60;1.00
37530;DHT22;23374;52.758;6.872;2022-08-05T03:15:36;19.60;1.00
37530;DHT22;23374;52.758;6.872;2022-08-05T03:17:57;19.70;99.90
37530;DHT22;23374;52.758;6.872;2022-08-05T03:20:17;19.70;1.00
37530;DHT22;23374;52.758;6.872;2022-08-05T03:22:45;19.70;1.00
37530;DHT22;23374;52.758;6.872;2022-08-05T03:25:06;19.80;1.00
37530;DHT22;23374;52.758;6.872;2022-08-05T03:27:27;19.80;1.00
37530;DHT22;23374;52.758;6.872;2022-08-05T03:29:48;19.80;1.00
37530;DHT22;23374;52.758;6.872;2022-08-05T03:32:09;19.80;1.00
37530;DHT22;23374;52.758;6.872;2022-08-05T03:34:31;19.80;99.90
37530;DHT22;23374;52.758;6.872;2022-08-05T03:36:52;19.80;99.90
37530;DHT22;23374;52.758;6.872;2022-08-05T03:39:12;19.80;99.90
37530;DHT22;23374;52.758;6.872;2022-08-05T03:41:33;19.80;99.90
37530;DHT22;23374;52.758;6.872;2022-08-05T03:43:53;19.80;1.00
37530;DHT22;23374;52.758;6.872;2022-08-05T03:46:13;19.80;1.00
37530;DHT22;23374;52.758;6.872;2022-08-05T03:48:33;19.70;1.00
37530;DHT22;23374;52.758;6.872;2022-08-05T03:51:20;19.70;1.00
37530;DHT22;23374;52.758;6.872;2022-08-05T03:54:06;19.70;1.00
37530;DHT22;23374;52.758;6.872;2022-08-05T03:56:43;19.70;1.00
37530;DHT22;23374;52.758;6.872;2022-08-05T03:59:09;19.70;1.00
37530;DHT22;23374;52.758;6.872;2022-08-05T04:01:36;19.60;99.90
37530;DHT22;23374;52.758;6.872;2022-08-05T04:03:59;19.60;6.20
37530;DHT22;23374;52.758;6.872;2022-08-05T04:06:21;19.60;1.00
37530;DHT22;23374;52.758;6.872;2022-08-05T04:08:42;19.60;1.00
37530;DHT22;23374;52.758;6.872;2022-08-05T04:11:04;19.60;1.00
37530;DHT22;23374;52.758;6.872;2022-08-05T04:13:28;19.60;1.00
37530;DHT22;23374;52.758;6.872;2022-08-05T04:15:51;19.60;1.00
37530;DHT22;23374;52.758;6.872;2022-08-05T04:18:12;19.50;99.90
37530;DHT22;23374;52.758;6.872;2022-08-05T04:20:32;19.50;99.90
37530;DHT22;23374;52.758;6.872;2022-08-05T04:22:53;19.50;1.00
37530;DHT22;23374;52.758;6.872;2022-08-05T04:25:13;19.50;1.00
37530;DHT22;23374;52.758;6.872;2022-08-05T04:27:33;19.50;99.90
37530;DHT22;23374;52.758;6.872;2022-08-05T04:29:53;19.50;99.90
37530;DHT22;23374;52.758;6.872;2022-08-05T04:32:13;19.50;1.00
37530;DHT22;23374;52.758;6.872;2022-08-05T04:34:33;19.50;1.00
37530;DHT22;23374;52.758;6.872;2022-08-05T04:36:54;19.50;99.90
37530;DHT22;23374;52.758;6.872;2022-08-05T04:39:14;19.50;1.00
37530;DHT22;23374;52.758;6.872;2022-08-05T04:41:34;19.50;1.00
37530;DHT22;23374;52.758;6.872;2022-08-05T04:43:55;19.50;1.00
37530;DHT22;23374;52.758;6.872;2022-08-05T04:46:15;19.50;1.00
37530;DHT22;23374;52.758;6.872;2022-08-05T04:48:35;19.40;99.90
37530;DHT22;23374;52.758;6.872;2022-08-05T04:50:55;19.40;1.00
37530;DHT22;23374;52.758;6.872;2022-08-05T04:53:17;19.40;1.00
37530;DHT22;23374;52.758;6.872;2022-08-05T04:55:39;19.40;1.00
37530;DHT22;23374;52.758;6.872;2022-08-05T04:57:59;19.40;99.90
37530;DHT22;23374;52.758;6.872;2022-08-05T05:00:20;19.40;1.00
37530;DHT22;23374;52.758;6.872;2022-08-05T05:02:40;19.40;1.00
37530;DHT22;23374;52.758;6.872;2022-08-05T05:05:01;19.40;1.00
37530;DHT22;23374;52.758;6.872;2022-08-05T05:07:21;19.40;99.90
37530;DHT22;23374;52.758;6.872;2022-08-05T05:09:41;19.40;99.90
37530;DHT22;23374;52.758;6.872;2022-08-05T05:12:02;19.40;99.90
37530;DHT22;23374;52.758;6.872;2022-08-05T05:14:23;19.30;1.00
37530;DHT22;23374;52.758;6.872;2022-08-05T05:16:43;19.30;1.00
37530;DHT22;23374;52.758;6.872;2022-08-05T05:19:04;19.30;3.70
37530;DHT22;23374;52.758;6.872;2022-08-05T05:21:24;19.20;1.00
37530;DHT22;23374;52.758;6.872;2022-08-05T05:23:44;19.20;99.90
37530;DHT22;23374;52.758;6.872;2022-08-05T05:26:04;19.20;99.90
37530;DHT22;23374;52.758;6.872;2022-08-05T05:28:25;19.20;1.00
37530;DHT22;23374;52.758;6.872;2022-08-05T05:30:45;19.20;99.90
37530;DHT22;23374;52.758;6.872;2022-08-05T05:33:07;19.20;1.00
37530;DHT22;23374;52.758;6.872;2022-08-05T05:35:29;19.20;99.90
37530;DHT22;23374;52.758;6.872;2022-08-05T05:37:55;19.20;99.90
37530;DHT22;23374;52.758;6.872;2022-08-05T05:40:21;19.30;99.90
37530;DHT22;23374;52.758;6.872;2022-08-05T05:42:41;19.30;1.00
37530;DHT22;23374;52.758;6.872;2022-08-05T05:45:02;19.30;99.90
37530;DHT22;23374;52.758;6.872;2022-08-05T05:47:22;19.30;99.90
37530;DHT22;23374;52.758;6.872;2022-08-05T05:49:42;19.30;99.90
37530;DHT22;23374;52.758;6.872;2022-08-05T05:52:03;19.30;99.90
37530;DHT22;23374;52.758;6.872;2022-08-05T05:54:23;19.30;99.90
37530;DHT22;23374;52.758;6.872;2022-08-05T05:56:43;19.40;99.90
37530;DHT22;23374;52.758;6.872;2022-08-05T05:59:05;19.40;99.90
37530;DHT22;23374;52.758;6.872;2022-08-05T06:01:25;19.40;99.90
37530;DHT22;23374;52.758;6.872;2022-08-05T06:03:45;19.40;99.90
37530;DHT22;23374;52.758;6.872;2022-08-05T06:06:06;19.40;99.90
37530;DHT22;23374;52.758;6.872;2022-08-05T06:08:27;19.40;99.90
37530;DHT22;23374;52.758;6.872;2022-08-05T06:10:47;19.40;99.90
37530;DHT22;23374;52.758;6.872;2022-08-05T06:13:07;19.40;99.90
37530;DHT22;23374;52.758;6.872;2022-08-05T06:15:27;19.50;99.90
37530;DHT22;23374;52.758;6.872;2022-08-05T06:17:47;19.50;99.90
37530;DHT22;23374;52.758;6.872;2022-08-05T06:20:08;19.50;99.90
37530;DHT22;23374;52.758;6.872;2022-08-05T06:22:32;19.50;99.90
37530;DHT22;23374;52.758;6.872;2022-08-05T06:24:53;19.50;99.90
37530;DHT22;23374;52.758;6.872;2022-08-05T06:27:13;19.50;99.90
37530;DHT22;23374;52.758;6.872;2022-08-05T06:29:33;19.50;99.90
37530;DHT22;23374;52.758;6.872;2022-08-05T06:31:55;19.60;99.90
37530;DHT22;23374;52.758;6.872;2022-08-05T06:34:15;19.60;99.90
37530;DHT22;23374;52.758;6.872;2022-08-05T06:36:35;19.60;99.90
37530;DHT22;23374;52.758;6.872;2022-08-05T06:38:55;19.70;99.90
37530;DHT22;23374;52.758;6.872;2022-08-05T06:41:15;19.70;99.90
37530;DHT22;23374;52.758;6.872;2022-08-05T06:43:36;19.80;99.90
37530;DHT22;23374;52.758;6.872;2022-08-05T06:45:56;19.80;55.20
37530;DHT22;23374;52.758;6.872;2022-08-05T06:48:16;19.80;72.30
37530;DHT22;23374;52.758;6.872;2022-08-05T06:50:36;19.80;1.00
37530;DHT22;23374;52.758;6.872;2022-08-05T06:52:56;19.90;81.60
37530;DHT22;23374;52.758;6.872;2022-08-05T06:55:16;19.90;16.90
37530;DHT22;23374;52.758;6.872;2022-08-05T06:57:37;19.90;1.00
37530;DHT22;23374;52.758;6.872;2022-08-05T06:59:57;19.90;1.00
37530;DHT22;23374;52.758;6.872;2022-08-05T07:02:17;19.90;1.00
37530;DHT22;23374;52.758;6.872;2022-08-05T07:04:37;19.90;1.00
37530;DHT22;23374;52.758;6.872;2022-08-05T07:06:58;19.90;1.00
37530;DHT22;23374;52.758;6.872;2022-08-05T07:09:18;19.90;1.00
37530;DHT22;23374;52.758;6.872;2022-08-05T07:11:38;19.90;1.00
37530;DHT22;23374;52.758;6.872;2022-08-05T07:13:58;19.90;1.00
37530;DHT22;23374;52.758;6.872;2022-08-05T07:16:37;19.90;1.00
37530;DHT22;23374;52.758;6.872;2022-08-05T07:19:10;19.90;1.00
37530;DHT22;23374;52.758;6.872;2022-08-05T07:21:30;19.90;1.00
37530;DHT22;23374;52.758;6.872;2022-08-05T07:23:50;19.90;1.00
37530;DHT22;23374;52.758;6.872;2022-08-05T07:26:10;19.90;1.00
37530;DHT22;23374;52.758;6.872;2022-08-05T07:28:30;19.90;99.90
37530;DHT22;23374;52.758;6.872;2022-08-05T07:30:50;20.00;1.00
37530;DHT22;23374;52.758;6.872;2022-08-05T07:33:11;20.00;1.00
37530;DHT22;23374;52.758;6.872;2022-08-05T07:35:32;20.00;1.00
37530;DHT22;23374;52.758;6.872;2022-08-05T07:37:52;20.10;99.90
37530;DHT22;23374;52.758;6.872;2022-08-05T07:40:12;20.10;99.90
37530;DHT22;23374;52.758;6.872;2022-08-05T07:42:33;20.20;99.90
37530;DHT22;23374;52.758;6.872;2022-08-05T07:44:54;20.20;99.90
37530;DHT22;23374;52.758;6.872;2022-08-05T07:47:15;20.30;99.90
37530;DHT22;23374;52.758;6.872;2022-08-05T07:49:35;20.40;1.00
37530;DHT22;23374;52.758;6.872;2022-08-05T07:51:55;20.40;1.00
37530;DHT22;23374;52.758;6.872;2022-08-05T07:54:16;20.50;1.00
37530;DHT22;23374;52.758;6.872;2022-08-05T07:56:37;20.60;50.70
37530;DHT22;23374;52.758;6.872;2022-08-05T07:58:57;20.70;99.90
37530;DHT22;23374;52.758;6.872;2022-08-05T08:01:18;20.70;1.00
37530;DHT22;23374;52.758;6.872;2022-08-05T08:03:39;20.80;1.00
37530;DHT22;23374;52.758;6.872;2022-08-05T08:06:00;20.80;99.90
37530;DHT22;23374;52.758;6.872;2022-08-05T08:08:20;20.90;1.00
37530;DHT22;23374;52.758;6.872;2022-08-05T08:10:40;21.00;99.90
37530;DHT22;23374;52.758;6.872;2022-08-05T08:13:00;21.00;1.00
37530;DHT22;23374;52.758;6.872;2022-08-05T08:15:21;21.00;1.00
37530;DHT22;23374;52.758;6.872;2022-08-05T08:17:43;21.00;99.90
37530;DHT22;23374;52.758;6.872;2022-08-05T08:20:05;21.00;1.00
37530;DHT22;23374;52.758;6.872;2022-08-05T08:22:26;21.00;1.00
37530;DHT22;23374;52.758;6.872;2022-08-05T08:24:47;21.00;1.00
37530;DHT22;23374;52.758;6.872;2022-08-05T08:27:07;21.10;33.70
37530;DHT22;23374;52.758;6.872;2022-08-05T08:29:28;21.10;1.00
37530;DHT22;23374;52.758;6.872;2022-08-05T08:31:49;21.20;1.00
37530;DHT22;23374;52.758;6.872;2022-08-05T08:34:09;21.20;1.00
37530;DHT22;23374;52.758;6.872;2022-08-05T08:36:30;21.30;99.90
37530;DHT22;23374;52.758;6.872;2022-08-05T08:38:50;21.40;99.90
37530;DHT22;23374;52.758;6.872;2022-08-05T08:41:14;21.40;99.90
37530;DHT22;23374;52.758;6.872;2022-08-05T08:43:36;21.40;1.00
37530;DHT22;23374;52.758;6.872;2022-08-05T08:45:58;21.40;1.00
37530;DHT22;23374;52.758;6.872;2022-08-05T08:48:21;21.40;1.00
37530;DHT22;23374;52.758;6.872;2022-08-05T08:50:43;21.40;1.00
37530;DHT22;23374;52.758;6.872;2022-08-05T08:53:05;21.50;1.00
37530;DHT22;23374;52.758;6.872;2022-08-05T08:55:26;21.50;33.30
37530;DHT22;23374;52.758;6.872;2022-08-05T08:57:46;21.50;1.00
37530;DHT22;23374;52.758;6.872;2022-08-05T09:00:10;21.50;1.00
37530;DHT22;23374;52.758;6.872;2022-08-05T09:02:31;21.40;1.00
37530;DHT22;23374;52.758;6.872;2022-08-05T09:04:52;21.40;1.00
37530;DHT22;23374;52.758;6.872;2022-08-05T09:07:12;21.40;99.90
37530;DHT22;23374;52.758;6.872;2022-08-05T09:09:37;21.40;1.00
37530;DHT22;23374;52.758;6.872;2022-08-05T09:11:58;21.30;1.00
37530;DHT22;23374;52.758;6.872;2022-08-05T09:14:18;21.30;99.90
37530;DHT22;23374;52.758;6.872;2022-08-05T09:16:39;21.30;99.90
37530;DHT22;23374;52.758;6.872;2022-08-05T09:18:59;21.30;1.00
37530;DHT22;23374;52.758;6.872;2022-08-05T09:21:19;21.20;1.00
37530;DHT22;23374;52.758;6.872;2022-08-05T09:23:44;21.20;56.90
37530;DHT22;23374;52.758;6.872;2022-08-05T09:26:13;21.20;1.00
37530;DHT22;23374;52.758;6.872;2022-08-05T09:28:39;21.30;1.00
37530;DHT22;23374;52.758;6.872;2022-08-05T09:31:12;21.30;99.90
37530;DHT22;23374;52.758;6.872;2022-08-05T09:33:49;21.40;1.00
37530;DHT22;23374;52.758;6.872;2022-08-05T09:36:10;21.50;99.90
37530;DHT22;23374;52.758;6.872;2022-08-05T09:38:31;21.60;1.00
37530;DHT22;23374;52.758;6.872;2022-08-05T09:40:52;21.60;84.40
37530;DHT22;23374;52.758;6.872;2022-08-05T09:43:37;21.70;53.90
37530;DHT22;23374;52.758;6.872;2022-08-05T09:45:58;21.80;1.00
37530;DHT22;23374;52.758;6.872;2022-08-05T09:48:31;21.90;99.90
37530;DHT22;23374;52.758;6.872;2022-08-05T09:50:59;22.00;1.00
37530;DHT22;23374;52.758;6.872;2022-08-05T09:53:20;21.90;99.90
37530;DHT22;23374;52.758;6.872;2022-08-05T09:55:40;22.00;1.00
37530;DHT22;23374;52.758;6.872;2022-08-05T09:58:10;21.90;1.00
37530;DHT22;23374;52.758;6.872;2022-08-05T10:00:30;22.00;1.00
37530;DHT22;23374;52.758;6.872;2022-08-05T10:02:52;21.90;99.90
37530;DHT22;23374;52.758;6.872;2022-08-05T10:05:16;21.90;99.90
37530;DHT22;23374;52.758;6.872;2022-08-05T10:08:02;22.00;99.90
37530;DHT22;23374;52.758;6.872;2022-08-05T10:10:26;22.10;99.90
37530;DHT22;23374;52.758;6.872;2022-08-05T10:12:54;22.10;99.90
37530;DHT22;23374;52.758;6.872;2022-08-05T10:15:25;22.20;99.90
37530;DHT22;23374;52.758;6.872;2022-08-05T10:18:33;22.30;1.00
37530;DHT22;23374;52.758;6.872;2022-08-05T10:21:00;22.30;99.90
37530;DHT22;23374;52.758;6.872;2022-08-05T10:23:35;22.20;76.60
37530;DHT22;23374;52.758;6.872;2022-08-05T10:26:05;22.20;99.90
37530;DHT22;23374;52.758;6.872;2022-08-05T10:28:27;22.30;99.90
37530;DHT22;23374;52.758;6.872;2022-08-05T10:30:48;22.20;1.00
37530;DHT22;23374;52.758;6.872;2022-08-05T10:33:10;22.30;1.00
37530;DHT22;23374;52.758;6.872;2022-08-05T10:35:32;22.40;1.00
37530;DHT22;23374;52.758;6.872;2022-08-05T10:37:53;22.60;1.00
37530;DHT22;23374;52.758;6.872;2022-08-05T10:42:51;22.70;1.00
37530;DHT22;23374;52.758;6.872;2022-08-05T10:45:13;22.80;13.40
37530;DHT22;23374;52.758;6.872;2022-08-05T10:47:34;22.90;99.90
37530;DHT22;23374;52.758;6.872;2022-08-05T10:50:12;22.90;99.90
37530;DHT22;23374;52.758;6.872;2022-08-05T10:52:47;22.80;99.90
37530;DHT22;23374;52.758;6.872;2022-08-05T10:55:17;22.80;99.90
37530;DHT22;23374;52.758;6.872;2022-08-05T10:57:39;22.80;15.10
37530;DHT22;23374;52.758;6.872;2022-08-05T11:00:19;22.80;1.00
37530;DHT22;23374;52.758;6.872;2022-08-05T11:03:09;22.70;1.00
37530;DHT22;23374;52.758;6.872;2022-08-05T11:05:29;22.70;1.00
37530;DHT22;23374;52.758;6.872;2022-08-05T11:07:59;22.60;55.20
37530;DHT22;23374;52.758;6.872;2022-08-05T11:10:26;22.70;28.50
37530;DHT22;23374;52.758;6.872;2022-08-05T11:12:46;22.70;27.90
37530;DHT22;23374;52.758;6.872;2022-08-05T11:15:26;22.80;1.00
37530;DHT22;23374;52.758;6.872;2022-08-05T11:17:54;22.80;1.00
37530;DHT22;23374;52.758;6.872;2022-08-05T11:20:46;22.90;1.00
37530;DHT22;23374;52.758;6.872;2022-08-05T11:23:52;22.90;1.00
37530;DHT22;23374;52.758;6.872;2022-08-05T11:26:30;23.00;1.00
37530;DHT22;23374;52.758;6.872;2022-08-05T11:28:53;23.00;1.00
37530;DHT22;23374;52.758;6.872;2022-08-05T11:31:22;23.10;1.00
37530;DHT22;23374;52.758;6.872;2022-08-05T11:33:56;23.00;1.00
37530;DHT22;23374;52.758;6.872;2022-08-05T11:36:38;23.00;1.00
37530;DHT22;23374;52.758;6.872;2022-08-05T11:38:59;23.10;1.00
37530;DHT22;23374;52.758;6.872;2022-08-05T11:41:27;23.10;1.00
37530;DHT22;23374;52.758;6.872;2022-08-05T11:44:02;23.10;1.00
37530;DHT22;23374;52.758;6.872;2022-08-05T11:46:28;23.10;1.00
37530;DHT22;23374;52.758;6.872;2022-08-05T11:48:48;23.10;1.00
37530;DHT22;23374;52.758;6.872;2022-08-05T11:51:08;23.20;1.00
37530;DHT22;23374;52.758;6.872;2022-08-05T11:53:29;23.30;99.90
37530;DHT22;23374;52.758;6.872;2022-08-05T11:55:55;23.30;1.00
37530;DHT22;23374;52.758;6.872;2022-08-05T11:58:37;23.40;99.90
37530;DHT22;23374;52.758;6.872;2022-08-05T12:01:11;23.40;1.00
37530;DHT22;23374;52.758;6.872;2022-08-05T12:03:55;23.40;1.00
37530;DHT22;23374;52.758;6.872;2022-08-05T12:06:19;23.50;1.00
37530;DHT22;23374;52.758;6.872;2022-08-05T12:08:52;23.60;1.00
37530;DHT22;23374;52.758;6.872;2022-08-05T12:11:24;23.50;1.00
37530;DHT22;23374;52.758;6.872;2022-08-05T12:15:43;23.60;1.00
37530;DHT22;23374;52.758;6.872;2022-08-05T12:18:03;23.70;1.00
37530;DHT22;23374;52.758;6.872;2022-08-05T12:20:27;23.80;99.90
37530;DHT22;23374;52.758;6.872;2022-08-05T12:22:47;23.70;99.90
37530;DHT22;23374;52.758;6.872;2022-08-05T12:25:08;23.50;1.00
37530;DHT22;23374;52.758;6.872;2022-08-05T12:27:29;23.40;1.00
37530;DHT22;23374;52.758;6.872;2022-08-05T12:30:07;23.40;99.90
37530;DHT22;23374;52.758;6.872;2022-08-05T12:32:32;23.40;1.00
37530;DHT22;23374;52.758;6.872;2022-08-05T12:34:54;23.30;1.00
37530;DHT22;23374;52.758;6.872;2022-08-05T12:37:15;23.30;1.00
37530;DHT22;23374;52.758;6.872;2022-08-05T12:39:39;23.30;1.00
37530;DHT22;23374;52.758;6.872;2022-08-05T12:42:00;23.30;1.00
37530;DHT22;23374;52.758;6.872;2022-08-05T12:44:20;23.30;99.90
37530;DHT22;23374;52.758;6.872;2022-08-05T12:46:42;23.40;99.90
37530;DHT22;23374;52.758;6.872;2022-08-05T12:49:14;23.60;1.00
37530;DHT22;23374;52.758;6.872;2022-08-05T12:51:50;23.60;99.90
37530;DHT22;23374;52.758;6.872;2022-08-05T12:54:16;23.60;99.90
37530;DHT22;23374;52.758;6.872;2022-08-05T12:56:47;23.50;92.90
37530;DHT22;23374;52.758;6.872;2022-08-05T12:59:21;23.30;99.90
37530;DHT22;23374;52.758;6.872;2022-08-05T13:01:44;23.20;99.90
37530;DHT22;23374;52.758;6.872;2022-08-05T13:04:05;23.10;99.90
37530;DHT22;23374;52.758;6.872;2022-08-05T13:06:26;23.10;1.00
37530;DHT22;23374;52.758;6.872;2022-08-05T13:08:48;23.00;1.00
37530;DHT22;23374;52.758;6.872;2022-08-05T13:11:16;22.80;99.90
37530;DHT22;23374;52.758;6.872;2022-08-05T13:13:38;22.80;99.90
37530;DHT22;23374;52.758;6.872;2022-08-05T13:15:58;22.90;1.00
37530;DHT22;23374;52.758;6.872;2022-08-05T13:18:20;23.00;1.00
37530;DHT22;23374;52.758;6.872;2022-08-05T13:20:40;23.00;99.90
37530;DHT22;23374;52.758;6.872;2022-08-05T13:23:00;22.90;48.00
37530;DHT22;23374;52.758;6.872;2022-08-05T13:25:20;22.90;63.20
37530;DHT22;23374;52.758;6.872;2022-08-05T13:27:50;22.80;99.90
37530;DHT22;23374;52.758;6.872;2022-08-05T13:30:13;22.70;99.90
37530;DHT22;23374;52.758;6.872;2022-08-05T13:32:34;22.70;99.90
37530;DHT22;23374;52.758;6.872;2022-08-05T13:34:55;22.60;99.90
37530;DHT22;23374;52.758;6.872;2022-08-05T13:37:19;22.60;99.90
37530;DHT22;23374;52.758;6.872;2022-08-05T13:39:42;22.50;99.90
37530;DHT22;23374;52.758;6.872;2022-08-05T13:42:02;22.50;99.90
37530;DHT22;23374;52.758;6.872;2022-08-05T13:44:23;22.60;99.90
37530;DHT22;23374;52.758;6.872;2022-08-05T13:46:43;22.60;99.90
37530;DHT22;23374;52.758;6.872;2022-08-05T13:49:03;22.60;99.90
37530;DHT22;23374;52.758;6.872;2022-08-05T13:51:30;22.80;99.90
37530;DHT22;23374;52.758;6.872;2022-08-05T13:53:50;22.80;99.90
37530;DHT22;23374;52.758;6.872;2022-08-05T13:56:10;22.80;99.90
37530;DHT22;23374;52.758;6.872;2022-08-05T13:58:30;22.90;99.90
37530;DHT22;23374;52.758;6.872;2022-08-05T14:00:51;23.00;99.90
37530;DHT22;23374;52.758;6.872;2022-08-05T14:03:11;23.10;99.90
37530;DHT22;23374;52.758;6.872;2022-08-05T14:05:31;23.00;99.90
37530;DHT22;23374;52.758;6.872;2022-08-05T14:07:51;22.90;99.90
37530;DHT22;23374;52.758;6.872;2022-08-05T14:10:18;22.70;99.90
37530;DHT22;23374;52.758;6.872;2022-08-05T14:12:40;22.60;99.90
37530;DHT22;23374;52.758;6.872;2022-08-05T14:15:00;22.50;99.90
37530;DHT22;23374;52.758;6.872;2022-08-05T14:17:21;22.50;99.90
37530;DHT22;23374;52.758;6.872;2022-08-05T14:19:44;22.40;99.90
37530;DHT22;23374;52.758;6.872;2022-08-05T14:22:05;22.50;99.90
37530;DHT22;23374;52.758;6.872;2022-08-05T14:24:25;22.60;99.90
37530;DHT22;23374;52.758;6.872;2022-08-05T14:26:45;22.60;99.90
37530;DHT22;23374;52.758;6.872;2022-08-05T14:29:05;22.70;99.90
37530;DHT22;23374;52.758;6.872;2022-08-05T14:31:26;22.70;99.90
37530;DHT22;23374;52.758;6.872;2022-08-05T14:33:46;22.60;99.90
37530;DHT22;23374;52.758;6.872;2022-08-05T14:36:06;22.60;99.90
37530;DHT22;23374;52.758;6.872;2022-08-05T14:38:27;22.60;99.90
37530;DHT22;23374;52.758;6.872;2022-08-05T14:40:47;22.50;99.90
37530;DHT22;23374;52.758;6.872;2022-08-05T14:43:07;22.50;99.90
37530;DHT22;23374;52.758;6.872;2022-08-05T14:45:28;22.40;99.90
37530;DHT22;23374;52.758;6.872;2022-08-05T14:47:48;22.40;99.90
37530;DHT22;23374;52.758;6.872;2022-08-05T14:50:08;22.40;99.90
37530;DHT22;23374;52.758;6.872;2022-08-05T14:52:29;22.40;99.90
37530;DHT22;23374;52.758;6.872;2022-08-05T14:54:50;22.50;99.90
37530;DHT22;23374;52.758;6.872;2022-08-05T14:57:10;22.50;99.90
37530;DHT22;23374;52.758;6.872;2022-08-05T14:59:30;22.60;99.90
37530;DHT22;23374;52.758;6.872;2022-08-05T15:01:50;22.50;99.90
37530;DHT22;23374;52.758;6.872;2022-08-05T15:04:11;22.40;99.90
37530;DHT22;23374;52.758;6.872;2022-08-05T15:06:31;22.40;99.90
37530;DHT22;23374;52.758;6.872;2022-08-05T15:08:52;22.30;99.90
37530;DHT22;23374;52.758;6.872;2022-08-05T15:11:13;22.30;99.90
37530;DHT22;23374;52.758;6.872;2022-08-05T15:13:33;22.30;99.90
37530;DHT22;23374;52.758;6.872;2022-08-05T15:15:54;22.20;99.90
37530;DHT22;23374;52.758;6.872;2022-08-05T15:18:15;22.20;99.90
37530;DHT22;23374;52.758;6.872;2022-08-05T15:20:35;22.10;99.90
37530;DHT22;23374;52.758;6.872;2022-08-05T15:23:02;22.00;99.90
37530;DHT22;23374;52.758;6.872;2022-08-05T15:25:23;21.90;99.90
37530;DHT22;23374;52.758;6.872;2022-08-05T15:27:43;21.90;99.90
37530;DHT22;23374;52.758;6.872;2022-08-05T15:30:05;21.80;99.90
37530;DHT22;23374;52.758;6.872;2022-08-05T15:32:25;21.80;99.90
37530;DHT22;23374;52.758;6.872;2022-08-05T15:34:46;21.80;99.90
37530;DHT22;23374;52.758;6.872;2022-08-05T15:37:06;22.00;99.90